This is the latest recevied weather packets stored in our database for station/object VE3DVC. If no packets are shown the sender has not sent any weather packets the latest 10 day(s).
| Time | Temp. | Humidity | Pressure | Rain* | Wind** | Luminosity | Snow |
|---|---|---|---|---|---|---|---|
| 1777923338 | 22.22° C | 42% | 1003.1 hPa | 0 mm | - | - | - |
| 1777921590 | 21.67° C | 44% | 1003.5 hPa | 0 mm | - | - | - |
| 1777920870 | 21.67° C | 46% | 1003.6 hPa | 0 mm | - | - | - |
| 1777920150 | 21.11° C | 47% | 1003.7 hPa | 0 mm | - | - | - |
| 1777919429 | 21.11° C | 48% | 1003.9 hPa | 0 mm | - | - | - |
| 1777918710 | 21.11° C | 49% | 1004 hPa | 0 mm | - | - | - |
| 1777917990 | 20° C | 49% | 1004.3 hPa | 0 mm | - | - | - |
| 1777917269 | 20° C | 51% | 1004.5 hPa | 0 mm | - | - | - |
| 1777916550 | 19.44° C | 52% | 1004.6 hPa | 0 mm | - | - | - |
| 1777915830 | 18.89° C | 56% | 1004.8 hPa | 0 mm | - | - | - |
| 1777915111 | 18.89° C | 56% | 1004.9 hPa | 0 mm | - | - | - |
| 1777912947 | 17.22° C | 57% | 1005.4 hPa | 0 mm | - | - | - |
| 1777912226 | 17.22° C | 57% | 1005.7 hPa | 0 mm | - | - | - |
| 1777911506 | 17.22° C | 58% | 1005.6 hPa | 0 mm | - | - | - |
| 1777910786 | 16.67° C | 60% | 1005.6 hPa | 0 mm | - | - | - |
| 1777910067 | 16.67° C | 60% | 1005.6 hPa | 0 mm | - | - | - |
| 1777909346 | 16.11° C | 61% | 1005.7 hPa | 0 mm | - | - | - |
| 1777908627 | 16.11° C | 60% | 1005.8 hPa | 0 mm | - | - | - |
| 1777907906 | 16.11° C | 60% | 1005.9 hPa | 0 mm | - | - | - |
| 1777907187 | 15.56° C | 62% | 1005.9 hPa | 0 mm | - | - | - |
| 1777906466 | 15.56° C | 60% | 1006 hPa | 0 mm | - | - | - |
| 1777905746 | 15° C | 61% | 1006 hPa | 0 mm | - | - | - |
| 1777905027 | 15° C | 62% | 1006 hPa | 0 mm | - | - | - |
| 1777904307 | 15° C | 60% | 1005.9 hPa | 0 mm | - | - | - |
| 1777903587 | 15° C | 60% | 1006 hPa | 0 mm | - | - | - |
* Rain latest hour (hover to see other rain measurements)
** Current wind speed in m/s (hover to see current wind gust speed)